PWSweather.com
Personal Weather Stations
Station Observations
KKYCRABO2
Cedar Creek Lake 840 Ky. Hwy. 39 N, Crab Orchard, KY 40419

Cedar Creek Lake 840 Ky. Hwy. 39 NCrab Orchard, KY 40419

Lat: 37.4736234544238, Lon: -84.5120286941528

Elevation: 952

Station Type: TYCON Power TP1080WC Pro

http://kbweather.net/

High Low Average
Temperature 90.9°F32.7°F 66.6°F19.2°F 74.9°F23.8°F
Dew Point 77.0°F25.0°F 64.4°F18.0°F 70.2°F21.2°F
Winds 8.1 mph SE13.0 mph SE Calm Calm 0.3 mph 0.5 mph
Wind Gusts 9.6 mph15.4 mph -- 1.4 mph2.3 mph
Humidity 97% 55% 86%
Pressure 30.27 in1025.10 in 30.15 in1021.00 in -
Precipitation 2.48 in63.00 in - -
Hour Temp Dew Point Humidity Winds Wind Gusts Pressure Precip Precip Rate Daily Precip Total
12:00 AM 68.9°F20.5°C 68.0°F20.0°C 95% Calm Calm 0.9 mph1.4 kmh 30.24 in1024.0 mb 0.00 in0.0 mm 0.00 in0.0 mm 0.00 in0.0 mm
12:05 AM 68.7°F20.4°C 68.0°F20.0°C 96% Calm Calm -- 30.24 in1024.0 mb 0.00 in0.0 mm 0.00 in0.0 mm 0.00 in0.0 mm
12:10 AM 68.7°F20.4°C 68.0°F20.0°C 96% Calm Calm -- 30.24 in1024.0 mb 0.00 in0.0 mm 0.00 in0.0 mm 0.00 in0.0 mm
12:15 AM 68.5°F20.3°C 68.0°F20.0°C 96% Calm Calm -- 30.24 in1024.0 mb 0.00 in0.0 mm 0.00 in0.0 mm 0.00 in0.0 mm
12:20 AM 68.5°F20.3°C 68.0°F20.0°C 96% Calm Calm -- 30.24 in1024.0 mb 0.00 in0.0 mm 0.00 in0.0 mm 0.00 in0.0 mm
12:25 AM 68.4°F20.2°C 68.0°F20.0°C 96% Calm Calm -- 30.24 in1024.0 mb 0.00 in0.0 mm 0.00 in0.0 mm 0.00 in0.0 mm
12:30 AM 68.4°F20.2°C 68.0°F20.0°C 96% Calm Calm -- 30.24 in1024.0 mb 0.00 in0.0 mm 0.00 in0.0 mm 0.00 in0.0 mm
12:35 AM 68.4°F20.2°C 68.0°F20.0°C 96% Calm Calm -- 30.24 in1024.0 mb 0.00 in0.0 mm 0.00 in0.0 mm 0.00 in0.0 mm
12:41 AM 68.2°F20.1°C 68.0°F20.0°C 96% Calm Calm -- 30.24 in1024.0 mb 0.00 in0.0 mm 0.00 in0.0 mm 0.00 in0.0 mm
12:45 AM 68.2°F20.1°C 68.0°F20.0°C 96% Calm Calm -- 30.24 in1024.0 mb 0.00 in0.0 mm 0.00 in0.0 mm 0.00 in0.0 mm
12:50 AM 68.2°F20.1°C 68.0°F20.0°C 96% Calm Calm -- 30.24 in1024.0 mb 0.00 in0.0 mm 0.00 in0.0 mm 0.00 in0.0 mm
12:55 AM 68.0°F20.0°C 68.0°F20.0°C 96% Calm Calm -- 30.21 in1023.0 mb 0.00 in0.0 mm 0.00 in0.0 mm 0.00 in0.0 mm
01:00 AM 68.0°F20.0°C 66.2°F19.0°C 95% Calm Calm 1.1 mph1.8 kmh 30.21 in1023.0 mb 0.00 in0.0 mm 0.00 in0.0 mm 0.00 in0.0 mm
01:05 AM 68.0°F20.0°C 68.0°F20.0°C 96% Calm Calm 1.1 mph1.8 kmh 30.21 in1023.0 mb 0.00 in0.0 mm 0.00 in0.0 mm 0.00 in0.0 mm
01:10 AM 68.0°F20.0°C 68.0°F20.0°C 96% Calm Calm -- 30.21 in1023.0 mb 0.00 in0.0 mm 0.00 in0.0 mm 0.00 in0.0 mm
01:15 AM 68.0°F20.0°C 68.0°F20.0°C 96% Calm Calm -- 30.21 in1023.0 mb 0.00 in0.0 mm 0.00 in0.0 mm 0.00 in0.0 mm
01:20 AM 68.0°F20.0°C 68.0°F20.0°C 96% Calm Calm -- 30.21 in1023.0 mb 0.00 in0.0 mm 0.00 in0.0 mm 0.00 in0.0 mm
01:25 AM 67.8°F19.9°C 68.0°F20.0°C 96% Calm Calm -- 30.21 in1023.0 mb 0.00 in0.0 mm 0.00 in0.0 mm 0.00 in0.0 mm
01:30 AM 67.8°F19.9°C 68.0°F20.0°C 96% Calm Calm -- 30.21 in1023.0 mb 0.00 in0.0 mm 0.00 in0.0 mm 0.00 in0.0 mm
01:35 AM 68.0°F20.0°C 68.0°F20.0°C 96% Calm Calm -- 30.21 in1023.0 mb 0.00 in0.0 mm 0.00 in0.0 mm 0.00 in0.0 mm
01:40 AM 68.0°F20.0°C 68.0°F20.0°C 96% Calm Calm -- 30.21 in1023.0 mb 0.00 in0.0 mm 0.00 in0.0 mm 0.00 in0.0 mm
01:45 AM 68.0°F20.0°C 68.0°F20.0°C 96% Calm Calm -- 30.21 in1023.0 mb 0.00 in0.0 mm 0.00 in0.0 mm 0.00 in0.0 mm
01:50 AM 68.0°F20.0°C 68.0°F20.0°C 96% Calm Calm 1.6 mph2.6 kmh 30.21 in1023.0 mb 0.00 in0.0 mm 0.00 in0.0 mm 0.00 in0.0 mm
01:55 AM 68.0°F20.0°C 68.0°F20.0°C 96% Calm Calm 1.6 mph2.6 kmh 30.18 in1022.0 mb 0.00 in0.0 mm 0.00 in0.0 mm 0.00 in0.0 mm
02:00 AM 68.2°F20.1°C 68.0°F20.0°C 96% Calm Calm -- 30.18 in1022.0 mb 0.00 in0.0 mm 0.00 in0.0 mm 0.00 in0.0 mm
02:05 AM 68.2°F20.1°C 68.0°F20.0°C 96% Calm Calm -- 30.18 in1022.0 mb 0.00 in0.0 mm 0.00 in0.0 mm 0.00 in0.0 mm
02:10 AM 68.2°F20.1°C 68.0°F20.0°C 96% Calm Calm -- 30.21 in1023.0 mb 0.00 in0.0 mm 0.00 in0.0 mm 0.00 in0.0 mm
02:15 AM 68.0°F20.0°C 68.0°F20.0°C 96% Calm Calm -- 30.21 in1023.0 mb 0.00 in0.0 mm 0.00 in0.0 mm 0.00 in0.0 mm
02:20 AM 68.0°F20.0°C 68.0°F20.0°C 96% Calm Calm -- 30.21 in1023.0 mb 0.00 in0.0 mm 0.00 in0.0 mm 0.00 in0.0 mm
02:25 AM 68.0°F20.0°C 68.0°F20.0°C 96% Calm Calm -- 30.18 in1022.0 mb 0.00 in0.0 mm 0.00 in0.0 mm 0.00 in0.0 mm
02:30 AM 67.6°F19.8°C 66.2°F19.0°C 96% Calm Calm -- 30.18 in1022.0 mb 0.00 in0.0 mm 0.00 in0.0 mm 0.00 in0.0 mm
02:35 AM 67.6°F19.8°C 66.2°F19.0°C 96% Calm Calm -- 30.18 in1022.0 mb 0.00 in0.0 mm 0.00 in0.0 mm 0.00 in0.0 mm
02:40 AM 67.6°F19.8°C 66.2°F19.0°C 96% Calm Calm -- 30.18 in1022.0 mb 0.00 in0.0 mm 0.00 in0.0 mm 0.00 in0.0 mm
02:45 AM 67.6°F19.8°C 66.2°F19.0°C 96% Calm Calm -- 30.18 in1022.0 mb 0.00 in0.0 mm 0.00 in0.0 mm 0.00 in0.0 mm
02:50 AM 67.6°F19.8°C 66.2°F19.0°C 96% Calm Calm -- 30.18 in1022.0 mb 0.00 in0.0 mm 0.00 in0.0 mm 0.00 in0.0 mm
02:55 AM 67.6°F19.8°C 66.2°F19.0°C 96% Calm Calm -- 30.18 in1022.0 mb 0.00 in0.0 mm 0.00 in0.0 mm 0.00 in0.0 mm
03:00 AM 67.8°F19.9°C 68.0°F20.0°C 96% Calm Calm -- 30.18 in1022.0 mb 0.00 in0.0 mm 0.00 in0.0 mm 0.00 in0.0 mm
03:05 AM 67.6°F19.8°C 66.2°F19.0°C 96% Calm Calm -- 30.18 in1022.0 mb 0.00 in0.0 mm 0.00 in0.0 mm 0.00 in0.0 mm
03:10 AM 67.6°F19.8°C 66.2°F19.0°C 96% Calm Calm -- 30.15 in1021.0 mb 0.00 in0.0 mm 0.00 in0.0 mm 0.00 in0.0 mm
03:15 AM 67.6°F19.8°C 66.2°F19.0°C 96% Calm Calm -- 30.15 in1021.0 mb 0.00 in0.0 mm 0.00 in0.0 mm 0.00 in0.0 mm
03:20 AM 67.5°F19.7°C 66.2°F19.0°C 96% Calm Calm -- 30.15 in1021.0 mb 0.00 in0.0 mm 0.00 in0.0 mm 0.00 in0.0 mm
03:25 AM 67.5°F19.7°C 66.2°F19.0°C 96% Calm Calm -- 30.18 in1022.0 mb 0.00 in0.0 mm 0.00 in0.0 mm 0.00 in0.0 mm
03:30 AM 67.5°F19.7°C 66.2°F19.0°C 96% Calm Calm 1.1 mph1.8 kmh 30.18 in1022.0 mb 0.00 in0.0 mm 0.00 in0.0 mm 0.00 in0.0 mm
03:35 AM 67.3°F19.6°C 66.2°F19.0°C 96% Calm Calm 1.1 mph1.8 kmh 30.18 in1022.0 mb 0.00 in0.0 mm 0.00 in0.0 mm 0.00 in0.0 mm
03:40 AM 67.3°F19.6°C 66.2°F19.0°C 96% Calm Calm -- 30.18 in1022.0 mb 0.00 in0.0 mm 0.00 in0.0 mm 0.00 in0.0 mm
03:45 AM 67.5°F19.7°C 66.2°F19.0°C 97% Calm Calm -- 30.18 in1022.0 mb 0.00 in0.0 mm 0.00 in0.0 mm 0.00 in0.0 mm
03:50 AM 67.5°F19.7°C 66.2°F19.0°C 97% Calm Calm -- 30.18 in1022.0 mb 0.00 in0.0 mm 0.00 in0.0 mm 0.00 in0.0 mm
03:55 AM 67.5°F19.7°C 66.2°F19.0°C 97% Calm Calm -- 30.15 in1021.0 mb 0.00 in0.0 mm 0.00 in0.0 mm 0.00 in0.0 mm
04:00 AM 67.3°F19.6°C 66.2°F19.0°C 97% Calm Calm -- 30.15 in1021.0 mb 0.00 in0.0 mm 0.00 in0.0 mm 0.00 in0.0 mm
04:05 AM 67.5°F19.7°C 66.2°F19.0°C 97% Calm Calm -- 30.15 in1021.0 mb 0.00 in0.0 mm 0.00 in0.0 mm 0.00 in0.0 mm
04:10 AM 67.3°F19.6°C 66.2°F19.0°C 97% Calm Calm -- 30.18 in1022.0 mb 0.00 in0.0 mm 0.00 in0.0 mm 0.00 in0.0 mm
04:15 AM 67.5°F19.7°C 66.2°F19.0°C 97% Calm Calm -- 30.18 in1022.0 mb 0.00 in0.0 mm 0.00 in0.0 mm 0.00 in0.0 mm
04:20 AM 67.5°F19.7°C 66.2°F19.0°C 97% Calm Calm -- 30.18 in1022.0 mb 0.00 in0.0 mm 0.00 in0.0 mm 0.00 in0.0 mm
04:25 AM 67.5°F19.7°C 66.2°F19.0°C 97% Calm Calm -- 30.18 in1022.0 mb 0.00 in0.0 mm 0.00 in0.0 mm 0.00 in0.0 mm
04:30 AM 67.5°F19.7°C 66.2°F19.0°C 97% Calm Calm -- 30.18 in1022.0 mb 0.00 in0.0 mm 0.00 in0.0 mm 0.00 in0.0 mm
04:35 AM 67.3°F19.6°C 66.2°F19.0°C 97% Calm Calm -- 30.18 in1022.0 mb 0.00 in0.0 mm 0.00 in0.0 mm 0.00 in0.0 mm
04:40 AM 67.3°F19.6°C 66.2°F19.0°C 97% Calm Calm -- 30.18 in1022.0 mb 0.00 in0.0 mm 0.00 in0.0 mm 0.00 in0.0 mm
04:45 AM 67.1°F19.5°C 66.2°F19.0°C 97% Calm Calm -- 30.18 in1022.0 mb 0.00 in0.0 mm 0.00 in0.0 mm 0.00 in0.0 mm
04:50 AM 67.1°F19.5°C 66.2°F19.0°C 97% Calm Calm -- 30.18 in1022.0 mb 0.00 in0.0 mm 0.00 in0.0 mm 0.00 in0.0 mm
04:55 AM 67.1°F19.5°C 66.2°F19.0°C 96% Calm Calm -- 30.18 in1022.0 mb 0.00 in0.0 mm 0.00 in0.0 mm 0.00 in0.0 mm
05:00 AM 66.9°F19.4°C 66.2°F19.0°C 97% Calm Calm -- 30.18 in1022.0 mb 0.00 in0.0 mm 0.00 in0.0 mm 0.00 in0.0 mm
05:05 AM 67.1°F19.5°C 66.2°F19.0°C 97% Calm Calm -- 30.18 in1022.0 mb 0.00 in0.0 mm 0.00 in0.0 mm 0.00 in0.0 mm
05:10 AM 66.9°F19.4°C 66.2°F19.0°C 97% Calm Calm -- 30.18 in1022.0 mb 0.00 in0.0 mm 0.00 in0.0 mm 0.00 in0.0 mm
05:15 AM 66.9°F19.4°C 66.2°F19.0°C 97% Calm Calm -- 30.18 in1022.0 mb 0.00 in0.0 mm 0.00 in0.0 mm 0.00 in0.0 mm
05:20 AM 66.9°F19.4°C 66.2°F19.0°C 97% Calm Calm -- 30.18 in1022.0 mb 0.00 in0.0 mm 0.00 in0.0 mm 0.00 in0.0 mm
05:25 AM 66.9°F19.4°C 66.2°F19.0°C 97% Calm Calm -- 30.18 in1022.0 mb 0.00 in0.0 mm 0.00 in0.0 mm 0.00 in0.0 mm
05:30 AM 66.9°F19.4°C 66.2°F19.0°C 97% Calm Calm -- 30.18 in1022.0 mb 0.00 in0.0 mm 0.00 in0.0 mm 0.00 in0.0 mm
05:35 AM 66.9°F19.4°C 66.2°F19.0°C 97% Calm Calm 1.1 mph1.8 kmh 30.18 in1022.0 mb 0.00 in0.0 mm 0.00 in0.0 mm 0.00 in0.0 mm
05:40 AM 66.9°F19.4°C 66.2°F19.0°C 97% Calm Calm 1.1 mph1.8 kmh 30.18 in1022.0 mb 0.00 in0.0 mm 0.00 in0.0 mm 0.00 in0.0 mm
05:45 AM 66.9°F19.4°C 66.2°F19.0°C 97% Calm Calm -- 30.18 in1022.0 mb 0.00 in0.0 mm 0.00 in0.0 mm 0.00 in0.0 mm
05:50 AM 66.9°F19.4°C 66.2°F19.0°C 97% Calm Calm -- 30.18 in1022.0 mb 0.00 in0.0 mm 0.00 in0.0 mm 0.00 in0.0 mm
05:55 AM 66.9°F19.4°C 66.2°F19.0°C 97% Calm Calm -- 30.18 in1022.0 mb 0.00 in0.0 mm 0.00 in0.0 mm 0.00 in0.0 mm
06:00 AM 66.9°F19.4°C 66.2°F19.0°C 97% Calm Calm -- 30.18 in1022.0 mb 0.00 in0.0 mm 0.00 in0.0 mm 0.00 in0.0 mm
06:05 AM 66.9°F19.4°C 66.2°F19.0°C 97% Calm Calm -- 30.18 in1022.0 mb 0.00 in0.0 mm 0.00 in0.0 mm 0.00 in0.0 mm
06:10 AM 66.9°F19.4°C 66.2°F19.0°C 97% Calm Calm -- 30.18 in1022.0 mb 0.00 in0.0 mm 0.00 in0.0 mm 0.00 in0.0 mm
06:15 AM 66.9°F19.4°C 66.2°F19.0°C 97% Calm Calm -- 30.18 in1022.0 mb 0.00 in0.0 mm 0.00 in0.0 mm 0.00 in0.0 mm
06:20 AM 66.9°F19.4°C 66.2°F19.0°C 97% Calm Calm -- 30.18 in1022.0 mb 0.00 in0.0 mm 0.00 in0.0 mm 0.00 in0.0 mm
06:25 AM 66.9°F19.4°C 66.2°F19.0°C 97% Calm Calm -- 30.18 in1022.0 mb 0.00 in0.0 mm 0.00 in0.0 mm 0.00 in0.0 mm
06:30 AM 66.9°F19.4°C 66.2°F19.0°C 97% Calm Calm -- 30.18 in1022.0 mb 0.00 in0.0 mm 0.00 in0.0 mm 0.00 in0.0 mm
06:35 AM 66.9°F19.4°C 66.2°F19.0°C 97% Calm Calm -- 30.18 in1022.0 mb 0.00 in0.0 mm 0.00 in0.0 mm 0.00 in0.0 mm
06:40 AM 66.9°F19.4°C 66.2°F19.0°C 97% Calm Calm -- 30.18 in1022.0 mb 0.00 in0.0 mm 0.00 in0.0 mm 0.00 in0.0 mm
06:45 AM 66.7°F19.3°C 66.2°F19.0°C 97% Calm Calm -- 30.18 in1022.0 mb 0.00 in0.0 mm 0.00 in0.0 mm 0.00 in0.0 mm
06:50 AM 66.7°F19.3°C 66.2°F19.0°C 97% Calm Calm -- 30.18 in1022.0 mb 0.00 in0.0 mm 0.00 in0.0 mm 0.00 in0.0 mm
06:55 AM 66.7°F19.3°C 66.2°F19.0°C 97% Calm Calm -- 30.18 in1022.0 mb 0.00 in0.0 mm 0.00 in0.0 mm 0.00 in0.0 mm
07:00 AM 66.7°F19.3°C 66.2°F19.0°C 97% Calm Calm -- 30.18 in1022.0 mb 0.00 in0.0 mm 0.00 in0.0 mm 0.00 in0.0 mm
07:05 AM 66.7°F19.3°C 66.2°F19.0°C 97% Calm Calm -- 30.18 in1022.0 mb 0.00 in0.0 mm 0.00 in0.0 mm 0.00 in0.0 mm
07:10 AM 66.7°F19.3°C 66.2°F19.0°C 97% Calm Calm -- 30.18 in1022.0 mb 0.00 in0.0 mm 0.00 in0.0 mm 0.00 in0.0 mm
07:15 AM 66.6°F19.2°C 66.2°F19.0°C 97% Calm Calm -- 30.18 in1022.0 mb 0.00 in0.0 mm 0.00 in0.0 mm 0.00 in0.0 mm
07:20 AM 66.6°F19.2°C 66.2°F19.0°C 97% Calm Calm -- 30.18 in1022.0 mb 0.00 in0.0 mm 0.00 in0.0 mm 0.00 in0.0 mm
07:25 AM 66.7°F19.3°C 66.2°F19.0°C 97% Calm Calm -- 30.21 in1023.0 mb 0.00 in0.0 mm 0.00 in0.0 mm 0.00 in0.0 mm
07:30 AM 66.7°F19.3°C 66.2°F19.0°C 97% Calm Calm -- 30.21 in1023.0 mb 0.00 in0.0 mm 0.00 in0.0 mm 0.00 in0.0 mm
07:35 AM 66.9°F19.4°C 66.2°F19.0°C 97% Calm Calm -- 30.21 in1023.0 mb 0.00 in0.0 mm 0.00 in0.0 mm 0.00 in0.0 mm
07:40 AM 66.9°F19.4°C 66.2°F19.0°C 97% Calm Calm -- 30.21 in1023.0 mb 0.00 in0.0 mm 0.00 in0.0 mm 0.00 in0.0 mm
07:45 AM 67.1°F19.5°C 66.2°F19.0°C 97% Calm Calm -- 30.21 in1023.0 mb 0.00 in0.0 mm 0.00 in0.0 mm 0.00 in0.0 mm
07:50 AM 67.1°F19.5°C 66.2°F19.0°C 97% Calm Calm -- 30.21 in1023.0 mb 0.00 in0.0 mm 0.00 in0.0 mm 0.00 in0.0 mm
07:55 AM 67.5°F19.7°C 66.2°F19.0°C 97% Calm Calm -- 30.21 in1023.0 mb 0.00 in0.0 mm 0.00 in0.0 mm 0.00 in0.0 mm
08:00 AM 67.5°F19.7°C 66.2°F19.0°C 97% Calm Calm -- 30.21 in1023.0 mb 0.00 in0.0 mm 0.00 in0.0 mm 0.00 in0.0 mm
08:05 AM 67.6°F19.8°C 66.2°F19.0°C 97% Calm Calm -- 30.21 in1023.0 mb 0.00 in0.0 mm 0.00 in0.0 mm 0.00 in0.0 mm
08:10 AM 68.0°F20.0°C 68.0°F20.0°C 97% Calm Calm -- 30.24 in1024.0 mb 0.00 in0.0 mm 0.00 in0.0 mm 0.00 in0.0 mm
08:15 AM 68.0°F20.0°C 68.0°F20.0°C 97% Calm Calm -- 30.24 in1024.0 mb 0.00 in0.0 mm 0.00 in0.0 mm 0.00 in0.0 mm
08:20 AM 68.4°F20.2°C 68.0°F20.0°C 97% Calm Calm -- 30.24 in1024.0 mb 0.00 in0.0 mm 0.00 in0.0 mm 0.00 in0.0 mm
08:25 AM 68.5°F20.3°C 68.0°F20.0°C 97% Calm Calm -- 30.24 in1024.0 mb 0.00 in0.0 mm 0.00 in0.0 mm 0.00 in0.0 mm
08:30 AM 68.7°F20.4°C 68.0°F20.0°C 97% Calm Calm -- 30.24 in1024.0 mb 0.00 in0.0 mm 0.00 in0.0 mm 0.00 in0.0 mm
08:35 AM 69.1°F20.6°C 68.0°F20.0°C 97% Calm Calm -- 30.24 in1024.0 mb 0.00 in0.0 mm 0.00 in0.0 mm 0.00 in0.0 mm
08:40 AM 69.3°F20.7°C 68.0°F20.0°C 97% Calm Calm -- 30.24 in1024.0 mb 0.00 in0.0 mm 0.00 in0.0 mm 0.00 in0.0 mm
08:45 AM 69.6°F20.9°C 69.8°F21.0°C 97% Calm Calm -- 30.24 in1024.0 mb 0.00 in0.0 mm 0.00 in0.0 mm 0.00 in0.0 mm
08:50 AM 70.0°F21.1°C 69.8°F21.0°C 97% Calm Calm -- 30.24 in1024.0 mb 0.00 in0.0 mm 0.00 in0.0 mm 0.00 in0.0 mm
08:55 AM 70.2°F21.2°C 69.8°F21.0°C 97% Calm Calm -- 30.24 in1024.0 mb 0.00 in0.0 mm 0.00 in0.0 mm 0.00 in0.0 mm
09:00 AM 70.5°F21.4°C 69.8°F21.0°C 97% Calm Calm -- 30.24 in1024.0 mb 0.00 in0.0 mm 0.00 in0.0 mm 0.00 in0.0 mm
09:05 AM 70.9°F21.6°C 69.8°F21.0°C 97% Calm Calm -- 30.24 in1024.0 mb 0.00 in0.0 mm 0.00 in0.0 mm 0.00 in0.0 mm
09:10 AM 71.2°F21.8°C 69.8°F21.0°C 97% Calm Calm -- 30.21 in1023.0 mb 0.00 in0.0 mm 0.00 in0.0 mm 0.00 in0.0 mm
09:15 AM 71.8°F22.1°C 71.6°F22.0°C 96% Calm Calm -- 30.21 in1023.0 mb 0.00 in0.0 mm 0.00 in0.0 mm 0.00 in0.0 mm
09:20 AM 72.5°F22.5°C 71.6°F22.0°C 97% Calm Calm -- 30.21 in1023.0 mb 0.00 in0.0 mm 0.00 in0.0 mm 0.00 in0.0 mm
09:25 AM 73.4°F23.0°C 73.4°F23.0°C 97% Calm Calm -- 30.24 in1024.0 mb 0.00 in0.0 mm 0.00 in0.0 mm 0.00 in0.0 mm
09:30 AM 74.8°F23.8°C 73.4°F23.0°C 97% 0.9 mph SE1.4 kmh SE 2.0 mph3.2 kmh 30.24 in1024.0 mb 0.00 in0.0 mm 0.00 in0.0 mm 0.00 in0.0 mm
09:35 AM 75.6°F24.2°C 75.2°F24.0°C 96% Calm Calm 2.7 mph4.3 kmh 30.24 in1024.0 mb 0.00 in0.0 mm 0.00 in0.0 mm 0.00 in0.0 mm
09:40 AM 76.3°F24.6°C 75.2°F24.0°C 94% 0.9 mph SE1.4 kmh SE 2.7 mph4.3 kmh 30.24 in1024.0 mb 0.00 in0.0 mm 0.00 in0.0 mm 0.00 in0.0 mm
09:45 AM 77.0°F25.0°C 75.2°F24.0°C 91% Calm Calm 2.5 mph4.0 kmh 30.24 in1024.0 mb 0.00 in0.0 mm 0.00 in0.0 mm 0.00 in0.0 mm
09:50 AM 78.1°F25.6°C 75.2°F24.0°C 90% Calm Calm 2.2 mph3.5 kmh 30.24 in1024.0 mb 0.00 in0.0 mm 0.00 in0.0 mm 0.00 in0.0 mm
09:55 AM 79.0°F26.1°C 75.2°F24.0°C 89% Calm Calm 1.6 mph2.6 kmh 30.21 in1023.0 mb 0.00 in0.0 mm 0.00 in0.0 mm 0.00 in0.0 mm
10:00 AM 79.9°F26.6°C 75.2°F24.0°C 85% 1.1 mph E1.8 kmh E 1.6 mph2.6 kmh 30.21 in1023.0 mb 0.00 in0.0 mm 0.00 in0.0 mm 0.00 in0.0 mm
10:05 AM 80.8°F27.1°C 75.2°F24.0°C 82% Calm Calm 2.0 mph3.2 kmh 30.21 in1023.0 mb 0.00 in0.0 mm 0.00 in0.0 mm 0.00 in0.0 mm
10:10 AM 81.0°F27.2°C 73.4°F23.0°C 78% Calm Calm 2.0 mph3.2 kmh 30.21 in1023.0 mb 0.00 in0.0 mm 0.00 in0.0 mm 0.00 in0.0 mm
10:15 AM 80.8°F27.1°C 73.4°F23.0°C 78% 0.9 mph ESE1.4 kmh ESE 2.0 mph3.2 kmh 30.21 in1023.0 mb 0.00 in0.0 mm 0.00 in0.0 mm 0.00 in0.0 mm
10:20 AM 80.4°F26.9°C 75.2°F24.0°C 80% Calm Calm 2.2 mph3.5 kmh 30.21 in1023.0 mb 0.00 in0.0 mm 0.00 in0.0 mm 0.00 in0.0 mm
10:25 AM 80.2°F26.8°C 73.4°F23.0°C 78% 0.9 mph ENE1.4 kmh ENE 2.2 mph3.5 kmh 30.24 in1024.0 mb 0.00 in0.0 mm 0.00 in0.0 mm 0.00 in0.0 mm
10:30 AM 79.9°F26.6°C 73.4°F23.0°C 79% Calm Calm 2.5 mph4.0 kmh 30.24 in1024.0 mb 0.00 in0.0 mm 0.00 in0.0 mm 0.00 in0.0 mm
10:35 AM 79.7°F26.5°C 73.4°F23.0°C 81% 0.9 mph SE1.4 kmh SE 2.5 mph4.0 kmh 30.24 in1024.0 mb 0.00 in0.0 mm 0.00 in0.0 mm 0.00 in0.0 mm
10:40 AM 79.5°F26.4°C 73.4°F23.0°C 81% Calm Calm 1.3 mph2.1 kmh 30.24 in1024.0 mb 0.00 in0.0 mm 0.00 in0.0 mm 0.00 in0.0 mm
10:45 AM 79.3°F26.3°C 73.4°F23.0°C 81% Calm Calm 1.3 mph2.1 kmh 30.24 in1024.0 mb 0.00 in0.0 mm 0.00 in0.0 mm 0.00 in0.0 mm
10:50 AM 79.3°F26.3°C 73.4°F23.0°C 81% Calm Calm 1.1 mph1.8 kmh 30.24 in1024.0 mb 0.00 in0.0 mm 0.00 in0.0 mm 0.00 in0.0 mm
10:55 AM 79.5°F26.4°C 73.4°F23.0°C 81% Calm Calm 1.1 mph1.8 kmh 30.24 in1024.0 mb 0.00 in0.0 mm 0.00 in0.0 mm 0.00 in0.0 mm
11:00 AM 79.9°F26.6°C 73.4°F23.0°C 81% Calm Calm 1.1 mph1.8 kmh 30.24 in1024.0 mb 0.00 in0.0 mm 0.00 in0.0 mm 0.00 in0.0 mm
11:05 AM 80.2°F26.8°C 73.4°F23.0°C 81% Calm Calm 1.3 mph2.1 kmh 30.24 in1024.0 mb 0.00 in0.0 mm 0.00 in0.0 mm 0.00 in0.0 mm
11:10 AM 80.4°F26.9°C 75.2°F24.0°C 80% Calm Calm 3.1 mph5.0 kmh 30.24 in1024.0 mb 0.00 in0.0 mm 0.00 in0.0 mm 0.00 in0.0 mm
11:15 AM 80.4°F26.9°C 75.2°F24.0°C 81% Calm Calm 3.1 mph5.0 kmh 30.24 in1024.0 mb 0.00 in0.0 mm 0.00 in0.0 mm 0.00 in0.0 mm
11:20 AM 80.6°F27.0°C 75.2°F24.0°C 80% Calm Calm 1.1 mph1.8 kmh 30.24 in1024.0 mb 0.00 in0.0 mm 0.00 in0.0 mm 0.00 in0.0 mm
11:25 AM 80.6°F27.0°C 75.2°F24.0°C 81% Calm Calm 1.1 mph1.8 kmh 30.21 in1023.0 mb 0.00 in0.0 mm 0.00 in0.0 mm 0.00 in0.0 mm
11:30 AM 80.8°F27.1°C 73.4°F23.0°C 79% Calm Calm 2.9 mph4.7 kmh 30.21 in1023.0 mb 0.00 in0.0 mm 0.00 in0.0 mm 0.00 in0.0 mm
11:35 AM 81.0°F27.2°C 75.2°F24.0°C 80% Calm Calm 2.9 mph4.7 kmh 30.21 in1023.0 mb 0.00 in0.0 mm 0.00 in0.0 mm 0.00 in0.0 mm
11:40 AM 81.1°F27.3°C 75.2°F24.0°C 80% 0.9 mph S1.4 kmh S 2.0 mph3.2 kmh 30.24 in1024.0 mb 0.00 in0.0 mm 0.00 in0.0 mm 0.00 in0.0 mm
11:45 AM 81.7°F27.6°C 75.2°F24.0°C 78% 0.9 mph E1.4 kmh E 3.8 mph6.1 kmh 30.24 in1024.0 mb 0.00 in0.0 mm 0.00 in0.0 mm 0.00 in0.0 mm
11:50 AM 82.0°F27.8°C 75.2°F24.0°C 79% Calm Calm 3.8 mph6.1 kmh 30.24 in1024.0 mb 0.00 in0.0 mm 0.00 in0.0 mm 0.00 in0.0 mm
11:55 AM 82.2°F27.9°C 75.2°F24.0°C 77% 0.9 mph E1.4 kmh E 3.1 mph5.0 kmh 30.24 in1024.0 mb 0.00 in0.0 mm 0.00 in0.0 mm 0.00 in0.0 mm
12:00 PM 82.4°F28.0°C 75.2°F24.0°C 76% Calm Calm 2.2 mph3.5 kmh 30.24 in1024.0 mb 0.00 in0.0 mm 0.00 in0.0 mm 0.00 in0.0 mm
12:05 PM 83.1°F28.4°C 75.2°F24.0°C 77% Calm Calm 2.5 mph4.0 kmh 30.24 in1024.0 mb 0.00 in0.0 mm 0.00 in0.0 mm 0.00 in0.0 mm
12:10 PM 83.8°F28.8°C 77.0°F25.0°C 77% 2.2 mph S3.5 kmh S 4.0 mph6.4 kmh 30.24 in1024.0 mb 0.00 in0.0 mm 0.00 in0.0 mm 0.00 in0.0 mm
12:15 PM 85.1°F29.5°C 77.0°F25.0°C 74% 1.1 mph ESE1.8 kmh ESE 4.0 mph6.4 kmh 30.24 in1024.0 mb 0.00 in0.0 mm 0.00 in0.0 mm 0.00 in0.0 mm
12:20 PM 85.6°F29.8°C 75.2°F24.0°C 72% Calm Calm 3.6 mph5.8 kmh 30.24 in1024.0 mb 0.00 in0.0 mm 0.00 in0.0 mm 0.00 in0.0 mm
12:25 PM 85.8°F29.9°C 75.2°F24.0°C 70% 0.9 mph ENE1.4 kmh ENE 2.2 mph3.5 kmh 30.27 in1025.1 mb 0.00 in0.0 mm 0.00 in0.0 mm 0.00 in0.0 mm
12:30 PM 86.7°F30.4°C 77.0°F25.0°C 71% 0.9 mph SSE1.4 kmh SSE 2.2 mph3.5 kmh 30.27 in1025.1 mb 0.00 in0.0 mm 0.00 in0.0 mm 0.00 in0.0 mm
12:35 PM 87.6°F30.9°C 77.0°F25.0°C 70% Calm Calm 2.0 mph3.2 kmh 30.27 in1025.1 mb 0.00 in0.0 mm 0.00 in0.0 mm 0.00 in0.0 mm
12:40 PM 88.3°F31.3°C 77.0°F25.0°C 69% Calm Calm 2.5 mph4.0 kmh 30.24 in1024.0 mb 0.00 in0.0 mm 0.00 in0.0 mm 0.00 in0.0 mm
12:45 PM 88.2°F31.2°C 77.0°F25.0°C 67% Calm Calm 2.5 mph4.0 kmh 30.24 in1024.0 mb 0.00 in0.0 mm 0.00 in0.0 mm 0.00 in0.0 mm
12:50 PM 88.0°F31.1°C 77.0°F25.0°C 68% Calm Calm 2.2 mph3.5 kmh 30.24 in1024.0 mb 0.00 in0.0 mm 0.00 in0.0 mm 0.00 in0.0 mm
12:55 PM 87.3°F30.7°C 75.2°F24.0°C 68% Calm Calm 2.2 mph3.5 kmh 30.24 in1024.0 mb 0.00 in0.0 mm 0.00 in0.0 mm 0.00 in0.0 mm
01:00 PM 86.9°F30.5°C 77.0°F25.0°C 70% Calm Calm 1.3 mph2.1 kmh 30.24 in1024.0 mb 0.00 in0.0 mm 0.00 in0.0 mm 0.00 in0.0 mm
01:05 PM 86.7°F30.4°C 75.2°F24.0°C 70% Calm Calm 1.6 mph2.6 kmh 30.24 in1024.0 mb 0.00 in0.0 mm 0.00 in0.0 mm 0.00 in0.0 mm
01:10 PM 86.5°F30.3°C 75.2°F24.0°C 70% 1.3 mph ENE2.1 kmh ENE 2.9 mph4.7 kmh 30.27 in1025.1 mb 0.00 in0.0 mm 0.00 in0.0 mm 0.00 in0.0 mm
01:15 PM 86.2°F30.1°C 75.2°F24.0°C 70% Calm Calm 2.9 mph4.7 kmh 30.27 in1025.1 mb 0.00 in0.0 mm 0.00 in0.0 mm 0.00 in0.0 mm
01:20 PM 85.8°F29.9°C 75.2°F24.0°C 70% Calm Calm 1.1 mph1.8 kmh 30.27 in1025.1 mb 0.00 in0.0 mm 0.00 in0.0 mm 0.00 in0.0 mm
01:25 PM 85.6°F29.8°C 75.2°F24.0°C 70% Calm Calm 1.3 mph2.1 kmh 30.24 in1024.0 mb 0.00 in0.0 mm 0.00 in0.0 mm 0.00 in0.0 mm
01:30 PM 86.4°F30.2°C 77.0°F25.0°C 71% Calm Calm 1.3 mph2.1 kmh 30.24 in1024.0 mb 0.00 in0.0 mm 0.00 in0.0 mm 0.00 in0.0 mm
01:40 PM 87.4°F30.8°C 77.0°F25.0°C 71% Calm Calm 2.2 mph3.5 kmh 30.24 in1024.0 mb 0.00 in0.0 mm 0.00 in0.0 mm 0.00 in0.0 mm
01:45 PM 87.8°F31.0°C 77.0°F25.0°C 70% Calm Calm 3.1 mph5.0 kmh 30.24 in1024.0 mb 0.00 in0.0 mm 0.00 in0.0 mm 0.00 in0.0 mm
01:50 PM 87.8°F31.0°C 77.0°F25.0°C 68% Calm Calm 3.1 mph5.0 kmh 30.24 in1024.0 mb 0.00 in0.0 mm 0.00 in0.0 mm 0.00 in0.0 mm
01:55 PM 87.8°F31.0°C 77.0°F25.0°C 69% Calm Calm 2.2 mph3.5 kmh 30.24 in1024.0 mb 0.00 in0.0 mm 0.00 in0.0 mm 0.00 in0.0 mm
02:00 PM 88.0°F31.1°C 75.2°F24.0°C 65% 2.2 mph SE3.5 kmh SE 3.6 mph5.8 kmh 30.24 in1024.0 mb 0.00 in0.0 mm 0.00 in0.0 mm 0.00 in0.0 mm
02:05 PM 88.0°F31.1°C 75.2°F24.0°C 65% 1.3 mph ESE2.1 kmh ESE 3.6 mph5.8 kmh 30.24 in1024.0 mb 0.00 in0.0 mm 0.00 in0.0 mm 0.00 in0.0 mm
02:10 PM 88.2°F31.2°C 75.2°F24.0°C 65% Calm Calm 3.4 mph5.5 kmh 30.21 in1023.0 mb 0.00 in0.0 mm 0.00 in0.0 mm 0.00 in0.0 mm
02:15 PM 88.2°F31.2°C 77.0°F25.0°C 67% Calm Calm 2.0 mph3.2 kmh 30.21 in1023.0 mb 0.00 in0.0 mm 0.00 in0.0 mm 0.00 in0.0 mm
02:20 PM 88.0°F31.1°C 75.2°F24.0°C 64% 0.9 mph WSW1.4 kmh WSW 1.3 mph2.1 kmh 30.21 in1023.0 mb 0.00 in0.0 mm 0.00 in0.0 mm 0.00 in0.0 mm
02:25 PM 88.2°F31.2°C 75.2°F24.0°C 66% Calm Calm 1.3 mph2.1 kmh 30.21 in1023.0 mb 0.00 in0.0 mm 0.00 in0.0 mm 0.00 in0.0 mm
02:30 PM 88.0°F31.1°C 75.2°F24.0°C 65% Calm Calm 3.4 mph5.5 kmh 30.21 in1023.0 mb 0.00 in0.0 mm 0.00 in0.0 mm 0.00 in0.0 mm
02:35 PM 88.0°F31.1°C 75.2°F24.0°C 64% 1.1 mph NNE1.8 kmh NNE 3.4 mph5.5 kmh 30.21 in1023.0 mb 0.00 in0.0 mm 0.00 in0.0 mm 0.00 in0.0 mm
02:40 PM 88.9°F31.6°C 75.2°F24.0°C 64% 0.9 mph NE1.4 kmh NE 2.9 mph4.7 kmh 30.21 in1023.0 mb 0.00 in0.0 mm 0.00 in0.0 mm 0.00 in0.0 mm
02:45 PM 89.4°F31.9°C 77.0°F25.0°C 65% Calm Calm 2.0 mph3.2 kmh 30.21 in1023.0 mb 0.00 in0.0 mm 0.00 in0.0 mm 0.00 in0.0 mm
02:50 PM 89.4°F31.9°C 75.2°F24.0°C 63% Calm Calm 3.4 mph5.5 kmh 30.21 in1023.0 mb 0.00 in0.0 mm 0.00 in0.0 mm 0.00 in0.0 mm
02:55 PM 89.4°F31.9°C 75.2°F24.0°C 62% 0.9 mph ENE1.4 kmh ENE 3.4 mph5.5 kmh 30.18 in1022.0 mb 0.00 in0.0 mm 0.00 in0.0 mm 0.00 in0.0 mm
03:00 PM 88.9°F31.6°C 75.2°F24.0°C 63% Calm Calm 2.7 mph4.3 kmh 30.18 in1022.0 mb 0.00 in0.0 mm 0.00 in0.0 mm 0.00 in0.0 mm
03:05 PM 88.2°F31.2°C 73.4°F23.0°C 62% Calm Calm 3.8 mph6.1 kmh 30.18 in1022.0 mb 0.00 in0.0 mm 0.00 in0.0 mm 0.00 in0.0 mm
03:10 PM 89.2°F31.8°C 75.2°F24.0°C 64% 0.9 mph NNE1.4 kmh NNE 3.8 mph6.1 kmh 30.18 in1022.0 mb 0.00 in0.0 mm 0.00 in0.0 mm 0.00 in0.0 mm
03:15 PM 90.0°F32.2°C 75.2°F24.0°C 61% 2.2 mph NE3.5 kmh NE 5.4 mph8.7 kmh 30.18 in1022.0 mb 0.00 in0.0 mm 0.00 in0.0 mm 0.00 in0.0 mm
03:20 PM 90.1°F32.3°C 75.2°F24.0°C 61% Calm Calm 6.3 mph10.1 kmh 30.18 in1022.0 mb 0.00 in0.0 mm 0.00 in0.0 mm 0.00 in0.0 mm
03:25 PM 90.3°F32.4°C 75.2°F24.0°C 60% Calm Calm 6.3 mph10.1 kmh 30.18 in1022.0 mb 0.00 in0.0 mm 0.00 in0.0 mm 0.00 in0.0 mm
03:30 PM 90.7°F32.6°C 75.2°F24.0°C 61% 1.3 mph NE2.1 kmh NE 5.6 mph9.0 kmh 30.18 in1022.0 mb 0.00 in0.0 mm 0.00 in0.0 mm 0.00 in0.0 mm
03:35 PM 89.8°F32.1°C 75.2°F24.0°C 60% Calm Calm 6.0 mph9.7 kmh 30.18 in1022.0 mb 0.00 in0.0 mm 0.00 in0.0 mm 0.00 in0.0 mm
03:40 PM 89.6°F32.0°C 73.4°F23.0°C 59% Calm Calm 6.0 mph9.7 kmh 30.18 in1022.0 mb 0.00 in0.0 mm 0.00 in0.0 mm 0.00 in0.0 mm
03:45 PM 90.1°F32.3°C 75.2°F24.0°C 61% 1.1 mph NNE1.8 kmh NNE 3.8 mph6.1 kmh 30.18 in1022.0 mb 0.00 in0.0 mm 0.00 in0.0 mm 0.00 in0.0 mm
03:50 PM 90.7°F32.6°C 75.2°F24.0°C 61% Calm Calm 3.8 mph6.1 kmh 30.18 in1022.0 mb 0.00 in0.0 mm 0.00 in0.0 mm 0.00 in0.0 mm
03:55 PM 90.7°F32.6°C 75.2°F24.0°C 60% Calm Calm 3.4 mph5.5 kmh 30.18 in1022.0 mb 0.00 in0.0 mm 0.00 in0.0 mm 0.00 in0.0 mm
04:00 PM 90.9°F32.7°C 75.2°F24.0°C 60% Calm Calm 3.4 mph5.5 kmh 30.18 in1022.0 mb 0.00 in0.0 mm 0.00 in0.0 mm 0.00 in0.0 mm
04:05 PM 90.7°F32.6°C 73.4°F23.0°C 56% 2.5 mph ENE4.0 kmh ENE 3.4 mph5.5 kmh 30.18 in1022.0 mb 0.00 in0.0 mm 0.00 in0.0 mm 0.00 in0.0 mm
04:10 PM 90.1°F32.3°C 75.2°F24.0°C 59% 1.1 mph NE1.8 kmh NE 3.8 mph6.1 kmh 30.15 in1021.0 mb 0.00 in0.0 mm 0.00 in0.0 mm 0.00 in0.0 mm
04:15 PM 89.6°F32.0°C 75.2°F24.0°C 61% Calm Calm 3.8 mph6.1 kmh 30.15 in1021.0 mb 0.00 in0.0 mm 0.00 in0.0 mm 0.00 in0.0 mm
04:20 PM 89.2°F31.8°C 73.4°F23.0°C 60% Calm Calm 1.3 mph2.1 kmh 30.15 in1021.0 mb 0.00 in0.0 mm 0.00 in0.0 mm 0.00 in0.0 mm
04:25 PM 88.3°F31.3°C 73.4°F23.0°C 61% Calm Calm 3.1 mph5.0 kmh 30.15 in1021.0 mb 0.00 in0.0 mm 0.00 in0.0 mm 0.00 in0.0 mm
04:30 PM 88.9°F31.6°C 73.4°F23.0°C 61% 1.1 mph NE1.8 kmh NE 3.1 mph5.0 kmh 30.15 in1021.0 mb 0.00 in0.0 mm 0.00 in0.0 mm 0.00 in0.0 mm
04:35 PM 88.9°F31.6°C 75.2°F24.0°C 62% Calm Calm 3.1 mph5.0 kmh 30.15 in1021.0 mb 0.00 in0.0 mm 0.00 in0.0 mm 0.00 in0.0 mm
04:40 PM 87.6°F30.9°C 73.4°F23.0°C 62% Calm Calm 4.3 mph6.9 kmh 30.15 in1021.0 mb 0.00 in0.0 mm 0.00 in0.0 mm 0.00 in0.0 mm
04:45 PM 87.1°F30.6°C 73.4°F23.0°C 63% Calm Calm 4.3 mph6.9 kmh 30.15 in1021.0 mb 0.00 in0.0 mm 0.00 in0.0 mm 0.00 in0.0 mm
04:50 PM 87.1°F30.6°C 73.4°F23.0°C 63% 2.0 mph NE3.2 kmh NE 4.3 mph6.9 kmh 30.15 in1021.0 mb 0.00 in0.0 mm 0.00 in0.0 mm 0.00 in0.0 mm
04:55 PM 87.4°F30.8°C 73.4°F23.0°C 63% Calm Calm 4.3 mph6.9 kmh 30.15 in1021.0 mb 0.00 in0.0 mm 0.00 in0.0 mm 0.00 in0.0 mm
05:00 PM 87.6°F30.9°C 75.2°F24.0°C 64% Calm Calm 2.5 mph4.0 kmh 30.15 in1021.0 mb 0.00 in0.0 mm 0.00 in0.0 mm 0.00 in0.0 mm
05:05 PM 87.3°F30.7°C 73.4°F23.0°C 63% Calm Calm 2.5 mph4.0 kmh 30.15 in1021.0 mb 0.00 in0.0 mm 0.00 in0.0 mm 0.00 in0.0 mm
05:10 PM 86.4°F30.2°C 73.4°F23.0°C 63% Calm Calm 3.1 mph5.0 kmh 30.15 in1021.0 mb 0.00 in0.0 mm 0.00 in0.0 mm 0.00 in0.0 mm
05:15 PM 86.4°F30.2°C 73.4°F23.0°C 64% Calm Calm 3.1 mph5.0 kmh 30.15 in1021.0 mb 0.00 in0.0 mm 0.00 in0.0 mm 0.00 in0.0 mm
05:20 PM 86.7°F30.4°C 73.4°F23.0°C 66% 2.9 mph SE4.7 kmh SE 4.3 mph6.9 kmh 30.15 in1021.0 mb 0.00 in0.0 mm 0.00 in0.0 mm 0.00 in0.0 mm
05:25 PM 86.0°F30.0°C 68.0°F20.0°C 55% 2.9 mph SE4.7 kmh SE 6.7 mph10.8 kmh 30.15 in1021.0 mb 0.00 in0.0 mm 0.00 in0.0 mm 0.00 in0.0 mm
05:30 PM 84.7°F29.3°C 68.0°F20.0°C 58% Calm Calm 6.7 mph10.8 kmh 30.15 in1021.0 mb 0.00 in0.0 mm 0.00 in0.0 mm 0.00 in0.0 mm
05:35 PM 83.5°F28.6°C 68.0°F20.0°C 57% 3.4 mph SE5.5 kmh SE 5.4 mph8.7 kmh 30.15 in1021.0 mb 0.00 in0.0 mm 0.00 in0.0 mm 0.00 in0.0 mm
05:40 PM 82.4°F28.0°C 66.2°F19.0°C 58% 2.5 mph SE4.0 kmh SE 5.4 mph8.7 kmh 30.15 in1021.0 mb 0.00 in0.0 mm 0.00 in0.0 mm 0.00 in0.0 mm
05:45 PM 81.5°F27.5°C 68.0°F20.0°C 61% 1.6 mph SE2.6 kmh SE 5.8 mph9.3 kmh 30.15 in1021.0 mb 0.00 in0.0 mm 0.00 in0.0 mm 0.00 in0.0 mm
05:50 PM 80.4°F26.9°C 68.0°F20.0°C 65% 8.1 mph SE13.0 kmh SE 9.6 mph15.4 kmh 30.15 in1021.0 mb 0.00 in0.0 mm 0.00 in0.0 mm 0.00 in0.0 mm
05:55 PM 79.5°F26.4°C 68.0°F20.0°C 67% 5.6 mph SE9.0 kmh SE 9.6 mph15.4 kmh 30.18 in1022.0 mb 0.00 in0.0 mm 0.00 in0.0 mm 0.00 in0.0 mm
06:00 PM 77.2°F25.1°C 68.0°F20.0°C 71% 3.4 mph SE5.5 kmh SE 8.1 mph13.0 kmh 30.18 in1022.0 mb 0.05 in1.3 mm 0.05 in1.3 mm 0.05 in1.3 mm
06:05 PM 74.7°F23.7°C 66.2°F19.0°C 72% 0.9 mph SE1.4 kmh SE 8.5 mph13.7 kmh 30.18 in1022.0 mb 0.13 in3.3 mm 0.96 in24.4 mm 0.13 in3.3 mm
06:10 PM 73.6°F23.1°C 64.4°F18.0°C 73% 2.0 mph W3.2 kmh W 8.5 mph13.7 kmh 30.15 in1021.0 mb 0.21 in5.3 mm 0.96 in24.4 mm 0.21 in5.3 mm
06:15 PM 73.0°F22.8°C 64.4°F18.0°C 76% 0.9 mph WSW1.4 kmh WSW 7.8 mph12.6 kmh 30.15 in1021.0 mb 0.21 in5.3 mm 0.00 in0.0 mm 0.21 in5.3 mm
06:20 PM 72.3°F22.4°C 66.2°F19.0°C 82% Calm Calm 4.0 mph6.4 kmh 30.15 in1021.0 mb 0.21 in5.3 mm 0.00 in0.0 mm 0.21 in5.3 mm
06:25 PM 72.1°F22.3°C 66.2°F19.0°C 82% 1.1 mph ENE1.8 kmh ENE 3.4 mph5.5 kmh 30.18 in1022.0 mb 0.21 in5.3 mm 0.00 in0.0 mm 0.21 in5.3 mm
06:30 PM 72.1°F22.3°C 66.2°F19.0°C 83% 2.0 mph E3.2 kmh E 3.4 mph5.5 kmh 30.18 in1022.0 mb 0.21 in5.3 mm 0.00 in0.0 mm 0.21 in5.3 mm
06:35 PM 72.1°F22.3°C 68.0°F20.0°C 84% Calm Calm 2.7 mph4.3 kmh 30.18 in1022.0 mb 0.21 in5.3 mm 0.00 in0.0 mm 0.21 in5.3 mm
06:40 PM 72.7°F22.6°C 69.8°F21.0°C 89% Calm Calm 2.5 mph4.0 kmh 30.15 in1021.0 mb 0.21 in5.3 mm 0.00 in0.0 mm 0.21 in5.3 mm
06:45 PM 72.9°F22.7°C 69.8°F21.0°C 88% Calm Calm 1.6 mph2.6 kmh 30.15 in1021.0 mb 0.21 in5.3 mm 0.00 in0.0 mm 0.21 in5.3 mm
06:50 PM 73.0°F22.8°C 69.8°F21.0°C 89% Calm Calm 1.3 mph2.1 kmh 30.15 in1021.0 mb 0.21 in5.3 mm 0.00 in0.0 mm 0.21 in5.3 mm
06:55 PM 73.0°F22.8°C 69.8°F21.0°C 88% Calm Calm 1.3 mph2.1 kmh 30.15 in1021.0 mb 0.21 in5.3 mm 0.00 in0.0 mm 0.21 in5.3 mm
07:00 PM 73.0°F22.8°C 69.8°F21.0°C 88% Calm Calm -- 30.15 in1021.0 mb 0.16 in4.1 mm 0.00 in0.0 mm 0.21 in5.3 mm
07:05 PM 73.0°F22.8°C 69.8°F21.0°C 89% Calm Calm -- 30.15 in1021.0 mb 0.04 in1.0 mm 0.00 in0.0 mm 0.21 in5.3 mm
07:10 PM 72.9°F22.7°C 69.8°F21.0°C 89% Calm Calm -- 30.15 in1021.0 mb 0.00 in0.0 mm 0.00 in0.0 mm 0.21 in5.3 mm
07:15 PM 72.9°F22.7°C 69.8°F21.0°C 89% Calm Calm -- 30.15 in1021.0 mb 0.00 in0.0 mm 0.00 in0.0 mm 0.21 in5.3 mm
07:20 PM 72.7°F22.6°C 69.8°F21.0°C 89% Calm Calm -- 30.15 in1021.0 mb 0.00 in0.0 mm 0.00 in0.0 mm 0.21 in5.3 mm
07:25 PM 72.7°F22.6°C 69.8°F21.0°C 90% Calm Calm -- 30.15 in1021.0 mb 0.00 in0.0 mm 0.00 in0.0 mm 0.21 in5.3 mm
07:30 PM 72.7°F22.6°C 69.8°F21.0°C 91% Calm Calm 1.3 mph2.1 kmh 30.15 in1021.0 mb 0.00 in0.0 mm 0.00 in0.0 mm 0.21 in5.3 mm
07:35 PM 72.5°F22.5°C 69.8°F21.0°C 91% Calm Calm 1.3 mph2.1 kmh 30.15 in1021.0 mb 0.00 in0.0 mm 0.00 in0.0 mm 0.21 in5.3 mm
07:40 PM 72.5°F22.5°C 69.8°F21.0°C 91% Calm Calm 1.1 mph1.8 kmh 30.15 in1021.0 mb 0.00 in0.0 mm 0.00 in0.0 mm 0.21 in5.3 mm
07:45 PM 72.7°F22.6°C 69.8°F21.0°C 92% 4.0 mph SE6.4 kmh SE 6.3 mph10.1 kmh 30.15 in1021.0 mb 0.00 in0.0 mm 0.00 in0.0 mm 0.21 in5.3 mm
07:50 PM 72.5°F22.5°C 69.8°F21.0°C 92% Calm Calm 6.3 mph10.1 kmh 30.15 in1021.0 mb 0.00 in0.0 mm 0.00 in0.0 mm 0.21 in5.3 mm
07:55 PM 72.5°F22.5°C 69.8°F21.0°C 92% Calm Calm 3.8 mph6.1 kmh 30.15 in1021.0 mb 0.00 in0.0 mm 0.00 in0.0 mm 0.21 in5.3 mm
08:00 PM 72.5°F22.5°C 69.8°F21.0°C 91% Calm Calm -- 30.15 in1021.0 mb 0.00 in0.0 mm 0.00 in0.0 mm 0.21 in5.3 mm
08:05 PM 72.5°F22.5°C 69.8°F21.0°C 91% Calm Calm -- 30.15 in1021.0 mb 0.00 in0.0 mm 0.00 in0.0 mm 0.21 in5.3 mm
08:10 PM 72.3°F22.4°C 69.8°F21.0°C 91% Calm Calm -- 30.15 in1021.0 mb 0.00 in0.0 mm 0.00 in0.0 mm 0.21 in5.3 mm
08:15 PM 72.1°F22.3°C 69.8°F21.0°C 91% Calm Calm -- 30.15 in1021.0 mb 0.00 in0.0 mm 0.00 in0.0 mm 0.21 in5.3 mm
08:20 PM 72.1°F22.3°C 69.8°F21.0°C 91% Calm Calm -- 30.15 in1021.0 mb 0.00 in0.0 mm 0.00 in0.0 mm 0.21 in5.3 mm
08:25 PM 72.3°F22.4°C 69.8°F21.0°C 91% Calm Calm 1.6 mph2.6 kmh 30.15 in1021.0 mb 0.00 in0.0 mm 0.00 in0.0 mm 0.21 in5.3 mm
08:30 PM 72.3°F22.4°C 69.8°F21.0°C 92% Calm Calm 2.0 mph3.2 kmh 30.15 in1021.0 mb 0.00 in0.0 mm 0.00 in0.0 mm 0.21 in5.3 mm
08:35 PM 72.1°F22.3°C 69.8°F21.0°C 92% 0.9 mph SSE1.4 kmh SSE 2.0 mph3.2 kmh 30.15 in1021.0 mb 0.00 in0.0 mm 0.00 in0.0 mm 0.21 in5.3 mm
08:40 PM 72.3°F22.4°C 69.8°F21.0°C 92% Calm Calm 1.3 mph2.1 kmh 30.15 in1021.0 mb 0.00 in0.0 mm 0.00 in0.0 mm 0.21 in5.3 mm
08:45 PM 72.1°F22.3°C 69.8°F21.0°C 92% Calm Calm 0.9 mph1.4 kmh 30.15 in1021.0 mb 0.00 in0.0 mm 0.00 in0.0 mm 0.21 in5.3 mm
08:50 PM 72.1°F22.3°C 69.8°F21.0°C 92% Calm Calm -- 30.15 in1021.0 mb 0.00 in0.0 mm 0.00 in0.0 mm 0.21 in5.3 mm
08:55 PM 72.0°F22.2°C 69.8°F21.0°C 92% Calm Calm -- 30.15 in1021.0 mb 0.00 in0.0 mm 0.00 in0.0 mm 0.21 in5.3 mm
09:00 PM 72.0°F22.2°C 69.8°F21.0°C 92% Calm Calm -- 30.15 in1021.0 mb 0.00 in0.0 mm 0.00 in0.0 mm 0.21 in5.3 mm
09:05 PM 72.0°F22.2°C 69.8°F21.0°C 92% Calm Calm 2.0 mph3.2 kmh 30.15 in1021.0 mb 0.00 in0.0 mm 0.00 in0.0 mm 0.21 in5.3 mm
09:10 PM 71.8°F22.1°C 69.8°F21.0°C 92% Calm Calm 2.2 mph3.5 kmh 30.18 in1022.0 mb 0.00 in0.0 mm 0.00 in0.0 mm 0.21 in5.3 mm
09:15 PM 71.8°F22.1°C 69.8°F21.0°C 92% Calm Calm 2.2 mph3.5 kmh 30.18 in1022.0 mb 0.00 in0.0 mm 0.00 in0.0 mm 0.21 in5.3 mm
09:20 PM 71.8°F22.1°C 69.8°F21.0°C 92% Calm Calm -- 30.18 in1022.0 mb 0.00 in0.0 mm 0.00 in0.0 mm 0.21 in5.3 mm
09:25 PM 71.8°F22.1°C 69.8°F21.0°C 92% Calm Calm -- 30.18 in1022.0 mb 0.00 in0.0 mm 0.00 in0.0 mm 0.21 in5.3 mm
09:30 PM 71.8°F22.1°C 69.8°F21.0°C 93% Calm Calm -- 30.18 in1022.0 mb 0.00 in0.0 mm 0.00 in0.0 mm 0.21 in5.3 mm
09:35 PM 71.6°F22.0°C 69.8°F21.0°C 93% Calm Calm -- 30.18 in1022.0 mb 0.00 in0.0 mm 0.00 in0.0 mm 0.21 in5.3 mm
09:40 PM 71.6°F22.0°C 69.8°F21.0°C 93% Calm Calm -- 30.18 in1022.0 mb 0.00 in0.0 mm 0.00 in0.0 mm 0.21 in5.3 mm
09:45 PM 71.6°F22.0°C 69.8°F21.0°C 93% Calm Calm -- 30.18 in1022.0 mb 0.00 in0.0 mm 0.00 in0.0 mm 0.21 in5.3 mm
09:50 PM 71.6°F22.0°C 69.8°F21.0°C 93% Calm Calm -- 30.18 in1022.0 mb 0.00 in0.0 mm 0.00 in0.0 mm 0.21 in5.3 mm
09:55 PM 71.6°F22.0°C 69.8°F21.0°C 93% Calm Calm -- 30.18 in1022.0 mb 0.00 in0.0 mm 0.00 in0.0 mm 0.21 in5.3 mm
10:00 PM 71.6°F22.0°C 69.8°F21.0°C 93% Calm Calm -- 30.18 in1022.0 mb 0.00 in0.0 mm 0.00 in0.0 mm 0.21 in5.3 mm
10:05 PM 71.6°F22.0°C 69.8°F21.0°C 93% Calm Calm -- 30.18 in1022.0 mb 0.00 in0.0 mm 0.00 in0.0 mm 0.21 in5.3 mm
10:10 PM 71.6°F22.0°C 69.8°F21.0°C 93% Calm Calm -- 30.21 in1023.0 mb 0.00 in0.0 mm 0.00 in0.0 mm 0.21 in5.3 mm
10:15 PM 71.4°F21.9°C 69.8°F21.0°C 93% Calm Calm -- 30.21 in1023.0 mb 0.00 in0.0 mm 0.00 in0.0 mm 0.21 in5.3 mm
10:20 PM 71.2°F21.8°C 69.8°F21.0°C 93% Calm Calm -- 30.21 in1023.0 mb 0.00 in0.0 mm 0.00 in0.0 mm 0.21 in5.3 mm
10:25 PM 71.1°F21.7°C 69.8°F21.0°C 93% Calm Calm -- 30.18 in1022.0 mb 0.00 in0.0 mm 0.00 in0.0 mm 0.21 in5.3 mm
10:30 PM 71.1°F21.7°C 69.8°F21.0°C 93% Calm Calm -- 30.18 in1022.0 mb 0.00 in0.0 mm 0.00 in0.0 mm 0.21 in5.3 mm
10:35 PM 71.1°F21.7°C 69.8°F21.0°C 93% Calm Calm -- 30.18 in1022.0 mb 0.00 in0.0 mm 0.00 in0.0 mm 0.21 in5.3 mm
10:40 PM 70.9°F21.6°C 69.8°F21.0°C 93% Calm Calm -- 30.18 in1022.0 mb 0.00 in0.0 mm 0.00 in0.0 mm 0.21 in5.3 mm
10:45 PM 70.7°F21.5°C 69.8°F21.0°C 93% Calm Calm -- 30.18 in1022.0 mb 0.00 in0.0 mm 0.00 in0.0 mm 0.21 in5.3 mm
10:50 PM 70.7°F21.5°C 69.8°F21.0°C 93% Calm Calm -- 30.18 in1022.0 mb 0.00 in0.0 mm 0.00 in0.0 mm 0.21 in5.3 mm
10:55 PM 70.5°F21.4°C 68.0°F20.0°C 93% Calm Calm -- 30.21 in1023.0 mb 0.00 in0.0 mm 0.00 in0.0 mm 0.21 in5.3 mm
11:00 PM 70.5°F21.4°C 68.0°F20.0°C 93% Calm Calm -- 30.21 in1023.0 mb 0.00 in0.0 mm 0.00 in0.0 mm 0.21 in5.3 mm
11:05 PM 70.5°F21.4°C 68.0°F20.0°C 93% Calm Calm -- 30.21 in1023.0 mb 0.00 in0.0 mm 0.00 in0.0 mm 0.21 in5.3 mm
11:10 PM 70.5°F21.4°C 68.0°F20.0°C 93% Calm Calm -- 30.21 in1023.0 mb 0.00 in0.0 mm 0.00 in0.0 mm 0.21 in5.3 mm
11:15 PM 70.3°F21.3°C 68.0°F20.0°C 93% Calm Calm -- 30.21 in1023.0 mb 0.00 in0.0 mm 0.00 in0.0 mm 0.21 in5.3 mm
11:20 PM 70.3°F21.3°C 68.0°F20.0°C 93% Calm Calm -- 30.21 in1023.0 mb 0.00 in0.0 mm 0.00 in0.0 mm 0.21 in5.3 mm
11:25 PM 70.2°F21.2°C 68.0°F20.0°C 93% Calm Calm -- 30.18 in1022.0 mb 0.00 in0.0 mm 0.00 in0.0 mm 0.21 in5.3 mm
11:30 PM 70.2°F21.2°C 68.0°F20.0°C 93% Calm Calm -- 30.18 in1022.0 mb 0.00 in0.0 mm 0.00 in0.0 mm 0.21 in5.3 mm
11:35 PM 70.2°F21.2°C 68.0°F20.0°C 94% Calm Calm -- 30.18 in1022.0 mb 0.00 in0.0 mm 0.00 in0.0 mm 0.21 in5.3 mm
11:40 PM 70.2°F21.2°C 68.0°F20.0°C 94% Calm Calm -- 30.18 in1022.0 mb 0.00 in0.0 mm 0.00 in0.0 mm 0.21 in5.3 mm
11:45 PM 70.2°F21.2°C 68.0°F20.0°C 94% Calm Calm -- 30.18 in1022.0 mb 0.00 in0.0 mm 0.00 in0.0 mm 0.21 in5.3 mm
11:50 PM 70.0°F21.1°C 68.0°F20.0°C 94% Calm Calm -- 30.18 in1022.0 mb 0.00 in0.0 mm 0.00 in0.0 mm 0.21 in5.3 mm
11:55 PM 69.8°F21.0°C 68.0°F20.0°C 94% Calm Calm -- 30.21 in1023.0 mb 0.00 in0.0 mm 0.00 in0.0 mm 0.21 in5.3 mm